createdAt,value
2019-03-22T00:01:53.325Z,57.17
2019-03-22T00:04:24.978Z,55.23
2019-03-22T00:06:56.825Z,59.77
2019-03-22T00:09:28.476Z,69.17
2019-03-22T00:11:59.978Z,59.17
2019-03-22T00:14:31.566Z,59.43
2019-03-22T00:17:03.069Z,58.97
2019-03-22T00:19:34.565Z,58.87
2019-03-22T00:22:06.196Z,60.40
2019-03-22T00:24:38.089Z,58.20
2019-03-22T00:27:16.388Z,60.00
2019-03-22T00:29:42.868Z,57.67
2019-03-22T00:32:14.440Z,57.80
2019-03-22T00:34:46.055Z,59.17
2019-03-22T00:37:18.076Z,52.93
2019-03-22T00:39:49.669Z,65.07
2019-03-22T00:42:21.587Z,56.67
2019-03-22T00:44:53.167Z,60.63
2019-03-22T00:47:25.022Z,58.67
2019-03-22T00:49:56.686Z,64.57
2019-03-22T00:52:28.619Z,62.90
2019-03-22T00:55:00.268Z,60.90
2019-03-22T00:57:31.871Z,63.47
2019-03-22T01:00:03.543Z,60.17
2019-03-22T01:02:35.129Z,60.37
2019-03-22T01:05:08.446Z,61.77
2019-03-22T01:07:40.100Z,60.30
2019-03-22T01:10:12.893Z,62.70
2019-03-22T01:12:44.813Z,62.17
2019-03-22T01:15:16.775Z,58.87
2019-03-22T01:17:48.358Z,63.17
2019-03-22T01:20:19.950Z,64.70
2019-03-22T01:22:51.541Z,67.00
2019-03-22T01:25:23.119Z,73.70
2019-03-22T01:27:54.709Z,62.27
2019-03-22T01:30:26.307Z,73.17
2019-03-22T01:32:57.879Z,68.00
2019-03-22T01:35:29.811Z,67.53
2019-03-22T01:38:01.321Z,64.53
2019-03-22T01:40:33.185Z,60.33
2019-03-22T01:43:04.787Z,69.43
2019-03-22T01:45:36.462Z,67.33
2019-03-22T01:48:08.144Z,67.53
2019-03-22T01:50:39.718Z,65.03
2019-03-22T01:53:11.288Z,69.47
2019-03-22T01:55:43.168Z,66.30
2019-03-22T01:58:14.680Z,67.33
2019-03-22T02:00:46.646Z,66.63
2019-03-22T02:03:18.255Z,66.63
2019-03-22T02:05:49.898Z,63.60
2019-03-22T02:08:22.468Z,70.73
2019-03-22T02:10:54.061Z,70.30
2019-03-22T02:13:25.546Z,71.47
2019-03-22T02:15:57.479Z,73.93
2019-03-22T02:18:29.058Z,77.17
2019-03-22T02:21:01.328Z,76.13
2019-03-22T02:23:33.287Z,72.50
2019-03-22T02:26:05.270Z,75.63
2019-03-22T02:28:36.855Z,79.23
2019-03-22T02:31:08.800Z,64.73
2019-03-22T02:33:40.450Z,61.10
2019-03-22T02:36:12.068Z,69.73
2019-03-22T02:38:44.232Z,70.13
2019-03-22T02:41:15.825Z,70.97
2019-03-22T02:43:47.403Z,70.70
2019-03-22T02:46:19.063Z,71.73
2019-03-22T02:48:50.647Z,76.97
2019-03-22T02:51:22.407Z,77.63
2019-03-22T02:53:54.086Z,79.70
2019-03-22T02:56:25.746Z,72.37
2019-03-22T02:58:59.375Z,74.13
2019-03-22T03:01:31.617Z,76.27
2019-03-22T03:04:03.199Z,80.67
2019-03-22T03:06:34.791Z,72.17
2019-03-22T03:09:07.629Z,78.50
2019-03-22T03:11:39.269Z,76.87
2019-03-22T03:14:10.863Z,78.47
2019-03-22T03:16:42.410Z,79.10
2019-03-22T03:19:14.726Z,80.67
2019-03-22T03:21:46.285Z,74.67
2019-03-22T03:24:18.280Z,76.03
2019-03-22T03:26:49.863Z,66.53
2019-03-22T03:29:21.446Z,71.80
2019-03-22T03:31:53.038Z,70.03
2019-03-22T03:34:24.667Z,68.07
2019-03-22T03:36:56.671Z,66.37
2019-03-22T03:39:28.653Z,76.50
2019-03-22T03:42:01.015Z,71.27
2019-03-22T03:44:33.442Z,69.20
2019-03-22T03:47:04.989Z,78.40
2019-03-22T03:49:36.587Z,77.37
2019-03-22T03:52:08.079Z,125.33
2019-03-22T03:54:39.623Z,121.70
2019-03-22T03:57:11.205Z,654.20
2019-03-22T03:59:42.850Z,661.33
2019-03-22T04:02:14.514Z,1411.67
2019-03-22T04:04:46.442Z,308.47
2019-03-22T04:07:18.083Z,193.83
2019-03-22T04:09:50.814Z,296.60
2019-03-22T04:12:22.818Z,79.77
2019-03-22T04:14:54.382Z,67.50
2019-03-22T04:17:25.950Z,72.23
2019-03-22T04:19:58.001Z,69.83
2019-03-22T04:22:29.944Z,65.43
2019-03-22T04:25:02.252Z,72.57
2019-03-22T04:27:34.269Z,68.53
2019-03-22T04:30:06.372Z,68.13
2019-03-22T04:32:38.342Z,65.33
2019-03-22T04:35:10.625Z,64.17
2019-03-22T04:37:42.534Z,67.97
2019-03-22T04:40:32.724Z,71.33
2019-03-22T04:43:04.605Z,78.17
2019-03-22T04:45:37.508Z,72.53
2019-03-22T04:48:20.979Z,111.83
2019-03-22T04:50:55.147Z,111.23
2019-03-22T04:53:29.336Z,153.67
2019-03-22T04:56:04.895Z,250.87
2019-03-22T04:58:38.541Z,170.50
2019-03-22T05:01:12.037Z,211.93
2019-03-22T05:03:44.339Z,111.93
2019-03-22T05:06:17.180Z,153.03
2019-03-22T05:08:50.413Z,293.87
2019-03-22T05:11:23.935Z,137.23
2019-03-22T05:14:06.827Z,116.03
2019-03-22T05:16:42.506Z,355.67
2019-03-22T05:19:15.057Z,370.47
2019-03-22T05:21:47.223Z,412.53
2019-03-22T05:24:19.522Z,342.93
2019-03-22T05:26:51.953Z,280.30
2019-03-22T05:29:30.663Z,279.50
2019-03-22T05:32:10.291Z,235.33
2019-03-22T05:34:42.620Z,96.53
2019-03-22T05:37:14.294Z,276.73
2019-03-22T05:39:46.334Z,238.30
2019-03-22T05:42:18.279Z,197.03
2019-03-22T05:44:49.926Z,215.77
2019-03-22T05:47:21.846Z,204.20
2019-03-22T05:49:53.373Z,144.00
2019-03-22T05:52:25.024Z,264.50
2019-03-22T05:54:56.581Z,217.93
2019-03-22T05:57:28.121Z,237.00
2019-03-22T05:59:59.775Z,97.47
2019-03-22T06:02:32.045Z,247.00
2019-03-22T06:05:03.623Z,197.00
2019-03-22T06:07:37.102Z,170.97
2019-03-22T06:10:08.891Z,123.30
2019-03-22T06:12:41.045Z,190.43
2019-03-22T06:15:13.098Z,157.53
2019-03-22T06:17:51.695Z,141.07
2019-03-22T06:20:19.446Z,131.53
2019-03-22T06:22:51.328Z,124.53
2019-03-22T06:25:23.000Z,84.47
2019-03-22T06:27:54.944Z,101.90
2019-03-22T06:30:26.536Z,112.30
2019-03-22T06:32:58.215Z,80.67
2019-03-22T06:35:29.802Z,157.20
2019-03-22T06:38:01.332Z,125.80
2019-03-22T06:40:33.314Z,105.50
2019-03-22T06:43:05.540Z,80.77
2019-03-22T06:45:37.466Z,88.87
2019-03-22T06:48:09.496Z,72.63
2019-03-22T06:50:41.052Z,58.43
2019-03-22T06:53:13.087Z,49.13
2019-03-22T06:55:45.348Z,44.37
2019-03-22T06:58:16.961Z,51.50
2019-03-22T07:00:48.525Z,53.53
2019-03-22T07:03:21.176Z,67.10
2019-03-22T07:05:53.162Z,65.33
2019-03-22T07:08:24.678Z,53.37
2019-03-22T07:10:56.564Z,54.77
2019-03-22T07:13:28.082Z,49.00
2019-03-22T07:16:00.059Z,45.13
2019-03-22T07:18:31.568Z,41.60
2019-03-22T07:21:03.133Z,47.47
2019-03-22T07:23:35.056Z,44.90
2019-03-22T07:26:06.744Z,61.50
2019-03-22T07:28:39.055Z,51.13
2019-03-22T07:31:11.102Z,54.23
2019-03-22T07:33:42.665Z,45.50
2019-03-22T07:36:14.617Z,48.23
2019-03-22T07:38:46.637Z,56.40
2019-03-22T07:41:18.201Z,51.63
2019-03-22T07:43:49.792Z,48.13
2019-03-22T07:46:22.470Z,46.10
2019-03-22T07:48:54.077Z,47.10
2019-03-22T07:51:25.967Z,51.57
2019-03-22T07:53:58.182Z,51.00
2019-03-22T07:56:30.083Z,44.80
2019-03-22T07:59:01.735Z,45.93
2019-03-22T08:01:44.567Z,42.10
2019-03-22T08:04:16.537Z,47.30
2019-03-22T08:06:48.607Z,51.20
2019-03-22T08:09:20.159Z,44.60
2019-03-22T08:11:52.116Z,45.20
2019-03-22T08:14:23.794Z,44.53
2019-03-22T08:16:55.801Z,45.17
2019-03-22T08:19:27.280Z,45.43
2019-03-22T08:21:59.286Z,43.17
2019-03-22T08:24:30.935Z,44.13
2019-03-22T08:27:02.762Z,46.70
2019-03-22T08:29:34.418Z,39.90
2019-03-22T08:32:06.335Z,40.40
2019-03-22T08:34:38.012Z,41.57
2019-03-22T08:37:10.084Z,39.20
2019-03-22T08:39:42.069Z,39.23
2019-03-22T08:42:14.021Z,41.83
2019-03-22T08:44:47.719Z,38.93
2019-03-22T08:47:19.358Z,37.33
2019-03-22T08:49:51.055Z,36.97
2019-03-22T08:52:22.973Z,34.03
2019-03-22T08:54:54.651Z,33.37
2019-03-22T08:57:26.298Z,31.70
2019-03-22T08:59:57.893Z,36.03
2019-03-22T09:02:29.604Z,32.87
2019-03-22T09:05:01.564Z,30.80
2019-03-22T09:07:33.162Z,33.00
2019-03-22T09:10:06.518Z,33.23
2019-03-22T09:12:38.473Z,31.30
2019-03-22T09:15:10.187Z,31.07
2019-03-22T09:17:41.773Z,29.83
2019-03-22T09:20:13.927Z,30.07
2019-03-22T09:22:45.610Z,30.00
2019-03-22T09:25:17.154Z,29.83
2019-03-22T09:27:48.827Z,30.93
2019-03-22T09:30:20.462Z,26.43
2019-03-22T09:32:52.116Z,25.33
2019-03-22T09:35:23.681Z,24.60
2019-03-22T09:37:55.282Z,26.47
2019-03-22T09:40:26.896Z,23.00
2019-03-22T09:42:58.834Z,24.83
2019-03-22T09:45:30.441Z,21.37
2019-03-22T09:48:06.096Z,18.70
2019-03-22T09:50:37.435Z,18.27
2019-03-22T09:53:09.083Z,21.13
2019-03-22T09:55:40.729Z,20.27
2019-03-22T09:58:12.318Z,20.43
2019-03-22T10:00:44.344Z,18.60
2019-03-22T10:03:15.297Z,14.67
2019-03-22T10:05:46.739Z,14.35
2019-03-22T10:08:18.379Z,13.53
2019-03-22T10:10:50.101Z,15.20
2019-03-22T10:13:21.706Z,17.75
2019-03-22T10:15:53.425Z,15.88
2019-03-22T10:18:25.456Z,16.20
2019-03-22T10:20:57.409Z,11.83
2019-03-22T10:23:30.325Z,14.47
2019-03-22T10:26:02.028Z,13.18
2019-03-22T10:28:33.752Z,10.38
2019-03-22T10:31:05.790Z,13.62
2019-03-22T10:33:37.379Z,12.20
2019-03-22T10:36:08.971Z,12.00
2019-03-22T10:38:40.642Z,12.73
2019-03-22T10:41:12.284Z,14.93
2019-03-22T10:43:43.905Z,12.37
2019-03-22T10:46:15.852Z,11.18
2019-03-22T10:48:47.462Z,14.20
2019-03-22T10:51:21.549Z,12.65
2019-03-22T10:53:53.069Z,13.98
2019-03-22T10:56:25.134Z,13.78
2019-03-22T10:58:56.955Z,14.33
2019-03-22T11:01:28.545Z,13.20
2019-03-22T11:04:00.639Z,14.80
2019-03-22T11:06:32.851Z,11.53
2019-03-22T11:09:05.869Z,11.53
2019-03-22T11:11:37.896Z,11.75
2019-03-22T11:14:09.859Z,12.10
2019-03-22T11:16:41.896Z,14.28
2019-03-22T11:19:13.862Z,12.60
2019-03-22T11:21:45.524Z,12.65
2019-03-22T11:24:17.224Z,12.25
2019-03-22T11:26:49.114Z,12.73
2019-03-22T11:29:20.708Z,13.15
2019-03-22T11:31:52.664Z,10.98
2019-03-22T11:34:24.179Z,13.38
2019-03-22T11:36:55.765Z,12.80
2019-03-22T11:39:27.635Z,11.68
2019-03-22T11:41:59.874Z,10.15
2019-03-22T11:44:31.754Z,9.58
2019-03-22T11:47:04.650Z,8.73
2019-03-22T11:49:36.150Z,11.53
2019-03-22T11:52:07.857Z,10.63
2019-03-22T11:54:39.804Z,11.35
2019-03-22T11:57:11.750Z,11.55
2019-03-22T11:59:43.670Z,12.00
2019-03-22T12:02:22.086Z,11.18
2019-03-22T12:04:48.533Z,10.38
2019-03-22T12:07:31.686Z,9.68
2019-03-22T12:10:03.658Z,10.48
2019-03-22T12:12:35.627Z,12.15
2019-03-22T12:15:08.688Z,12.93
2019-03-22T12:17:40.338Z,10.90
2019-03-22T12:20:14.130Z,11.22
2019-03-22T12:22:45.719Z,14.83
2019-03-22T12:25:17.928Z,12.45
2019-03-22T12:27:50.760Z,14.25
2019-03-22T12:30:22.810Z,11.00
2019-03-22T12:32:54.792Z,16.07
2019-03-22T12:35:26.333Z,13.70
2019-03-22T12:37:57.955Z,14.38
2019-03-22T12:40:29.577Z,14.90
2019-03-22T12:43:01.146Z,14.03
2019-03-22T12:45:34.323Z,14.13
2019-03-22T12:48:06.467Z,13.08
2019-03-22T12:50:38.055Z,15.28
2019-03-22T12:53:09.989Z,13.05
2019-03-22T12:55:41.839Z,12.70
2019-03-22T12:58:13.425Z,13.43
2019-03-22T13:00:45.320Z,14.75
2019-03-22T13:03:16.852Z,16.20
2019-03-22T13:05:48.463Z,13.60
2019-03-22T13:08:20.729Z,16.25
2019-03-22T13:10:52.389Z,14.30
2019-03-22T13:13:24.410Z,11.90
2019-03-22T13:15:56.069Z,12.50
2019-03-22T13:18:27.643Z,13.93
2019-03-22T13:20:59.232Z,11.93
2019-03-22T13:23:31.046Z,13.78
2019-03-22T13:26:03.202Z,10.43
2019-03-22T13:28:34.781Z,10.58
2019-03-22T13:31:06.387Z,10.00
2019-03-22T13:33:38.387Z,9.83
2019-03-22T13:36:10.665Z,13.25
2019-03-22T13:38:42.697Z,15.05
2019-03-22T13:41:14.796Z,13.03
2019-03-22T13:43:46.371Z,13.88
2019-03-22T13:46:18.269Z,12.18
2019-03-22T13:48:50.159Z,11.33
2019-03-22T13:51:21.825Z,14.15
2019-03-22T13:53:53.777Z,11.95
2019-03-22T13:56:25.390Z,13.00
2019-03-22T13:58:56.955Z,13.32
2019-03-22T14:01:28.920Z,10.05
2019-03-22T14:04:00.799Z,10.75
2019-03-22T14:06:32.389Z,12.07
2019-03-22T14:09:05.685Z,10.82
2019-03-22T14:11:37.286Z,12.55
2019-03-22T14:14:09.321Z,14.03
2019-03-22T14:16:41.253Z,11.55
2019-03-22T14:19:12.784Z,11.08
2019-03-22T14:21:44.403Z,12.58
2019-03-22T14:24:17.054Z,10.88
2019-03-22T14:26:49.071Z,13.93
2019-03-22T14:29:20.729Z,12.33
2019-03-22T14:31:52.256Z,12.23
2019-03-22T14:34:24.737Z,11.90
2019-03-22T14:36:56.678Z,12.78
2019-03-22T14:39:28.244Z,10.53
2019-03-22T14:41:59.856Z,9.88
2019-03-22T14:44:31.434Z,11.28
2019-03-22T14:47:03.286Z,11.50
2019-03-22T14:49:34.904Z,12.25
2019-03-22T14:52:06.734Z,13.90
2019-03-22T14:54:38.252Z,11.80
2019-03-22T14:57:09.919Z,12.58
2019-03-22T14:59:41.822Z,14.75
2019-03-22T15:02:13.396Z,15.93
2019-03-22T15:04:44.988Z,13.80
2019-03-22T15:07:20.041Z,11.43
2019-03-22T15:09:50.125Z,11.65
2019-03-22T15:12:22.120Z,11.38
2019-03-22T15:15:06.107Z,13.83
2019-03-22T15:17:47.688Z,13.83
2019-03-22T15:20:50.782Z,12.50
2019-03-22T15:24:03.457Z,11.60
2019-03-22T15:26:50.802Z,14.83
2019-03-22T15:29:59.768Z,13.83
2019-03-22T15:32:50.211Z,15.18
2019-03-22T15:35:39.788Z,15.72
2019-03-22T15:38:29.657Z,12.85
2019-03-22T15:41:01.871Z,13.28
2019-03-22T15:43:33.554Z,10.32
2019-03-22T15:46:05.219Z,13.98
2019-03-22T15:48:37.227Z,13.68
2019-03-22T15:51:09.148Z,14.47
2019-03-22T15:53:40.730Z,13.30
2019-03-22T15:56:12.351Z,12.68
2019-03-22T15:58:43.949Z,10.65
2019-03-22T16:01:15.563Z,10.30
2019-03-22T16:03:47.173Z,11.43
2019-03-22T16:06:19.502Z,9.98
2019-03-22T16:08:51.051Z,9.45
2019-03-22T16:11:22.631Z,12.80
2019-03-22T16:13:54.262Z,10.35
2019-03-22T16:16:25.855Z,9.55
2019-03-22T16:18:57.661Z,8.55
2019-03-22T16:21:29.302Z,10.03
2019-03-22T16:24:01.278Z,8.43
2019-03-22T16:26:32.948Z,9.53
2019-03-22T16:29:05.091Z,10.98
2019-03-22T16:31:36.734Z,10.80
2019-03-22T16:34:09.033Z,12.50
2019-03-22T16:36:40.624Z,10.05
2019-03-22T16:39:12.206Z,8.83
2019-03-22T16:41:43.827Z,10.20
2019-03-22T16:44:15.445Z,12.15
2019-03-22T16:46:47.012Z,10.35
2019-03-22T16:49:19.030Z,10.45
2019-03-22T16:51:50.634Z,15.35
2019-03-22T16:54:22.772Z,8.75
2019-03-22T16:56:54.736Z,10.60
2019-03-22T16:59:26.325Z,11.83
2019-03-22T17:01:58.281Z,10.48
2019-03-22T17:04:30.212Z,8.85
2019-03-22T17:07:01.923Z,13.25
2019-03-22T17:09:33.595Z,12.63
2019-03-22T17:12:05.286Z,8.80
2019-03-22T17:14:37.216Z,13.05
2019-03-22T17:17:08.895Z,12.68
2019-03-22T17:19:40.550Z,9.70
2019-03-22T17:22:12.100Z,8.68
2019-03-22T17:24:43.725Z,8.80
2019-03-22T17:27:15.611Z,9.83
2019-03-22T17:29:47.779Z,10.18
2019-03-22T17:32:19.744Z,8.33
2019-03-22T17:34:51.449Z,10.68
2019-03-22T17:37:23.467Z,8.87
2019-03-22T17:39:55.120Z,9.65
2019-03-22T17:42:27.049Z,7.97
2019-03-22T17:44:59.009Z,8.33
2019-03-22T17:47:30.982Z,8.38
2019-03-22T17:50:02.630Z,8.20
2019-03-22T17:52:34.278Z,8.03
2019-03-22T17:55:07.193Z,6.77
2019-03-22T17:57:38.783Z,8.60
2019-03-22T18:00:10.908Z,10.17
2019-03-22T18:02:43.177Z,10.90
2019-03-22T18:05:15.142Z,9.17
2019-03-22T18:07:47.000Z,10.20
2019-03-22T18:10:18.582Z,9.37
2019-03-22T18:12:50.108Z,12.07
2019-03-22T18:15:22.066Z,12.73
2019-03-22T18:17:53.658Z,9.77
2019-03-22T18:20:25.493Z,10.50
2019-03-22T18:22:57.532Z,11.80
2019-03-22T18:25:29.121Z,11.07
2019-03-22T18:28:00.784Z,9.60
2019-03-22T18:30:32.670Z,12.00
2019-03-22T18:33:04.336Z,13.47
2019-03-22T18:35:36.294Z,12.80
2019-03-22T18:38:08.048Z,12.17
2019-03-22T18:40:39.606Z,14.97
2019-03-22T18:43:11.232Z,15.03
2019-03-22T18:45:42.800Z,12.53
2019-03-22T18:48:14.823Z,12.83
2019-03-22T18:50:56.068Z,11.27
2019-03-22T18:53:19.953Z,16.30
2019-03-22T18:55:52.832Z,14.87
2019-03-22T18:58:24.488Z,12.40
2019-03-22T19:00:56.413Z,14.33
2019-03-22T19:03:27.954Z,16.07
2019-03-22T19:05:59.650Z,17.27
2019-03-22T19:08:31.689Z,14.40
2019-03-22T19:11:03.299Z,18.30
2019-03-22T19:13:34.899Z,16.60
2019-03-22T19:16:06.485Z,20.37
2019-03-22T19:18:38.008Z,17.13
2019-03-22T19:21:10.680Z,17.43
2019-03-22T19:23:42.341Z,19.10
2019-03-22T19:26:14.636Z,19.13
2019-03-22T19:28:46.259Z,20.30
2019-03-22T19:31:17.951Z,22.53
2019-03-22T19:33:49.637Z,25.50
2019-03-22T19:36:21.303Z,27.37
2019-03-22T19:38:52.905Z,24.80
2019-03-22T19:41:24.466Z,30.50
2019-03-22T19:43:56.391Z,25.80
2019-03-22T19:46:28.275Z,27.47
2019-03-22T19:48:59.796Z,27.50
2019-03-22T19:51:32.383Z,30.30
2019-03-22T19:54:04.035Z,27.87
2019-03-22T19:56:35.663Z,28.73
2019-03-22T19:59:07.279Z,30.30
2019-03-22T20:01:38.895Z,29.23
2019-03-22T20:04:10.466Z,32.07
2019-03-22T20:06:43.128Z,28.13
2019-03-22T20:09:15.025Z,30.30
2019-03-22T20:14:19.958Z,32.10
2019-03-22T20:16:51.800Z,34.30
2019-03-22T20:19:24.081Z,40.77
2019-03-22T20:21:55.612Z,37.60
2019-03-22T20:24:27.162Z,37.93
2019-03-22T20:26:59.694Z,42.77
2019-03-22T20:29:31.695Z,44.07
2019-03-22T20:32:03.292Z,49.70
2019-03-22T20:34:34.978Z,50.63
2019-03-22T20:37:06.590Z,51.63
2019-03-22T20:39:38.138Z,46.67
2019-03-22T20:42:09.730Z,43.73
2019-03-22T20:44:41.361Z,46.07
2019-03-22T20:47:12.993Z,53.10
2019-03-22T20:49:46.286Z,43.57
2019-03-22T20:52:17.896Z,47.03
2019-03-22T20:54:49.526Z,50.60
2019-03-22T20:57:21.764Z,51.57
2019-03-22T20:59:53.730Z,51.43
2019-03-22T21:02:25.390Z,54.97
2019-03-22T21:04:57.009Z,51.70
2019-03-22T21:07:28.619Z,55.07
2019-03-22T21:10:00.435Z,57.27
2019-03-22T21:12:34.154Z,55.30
2019-03-22T21:15:06.968Z,56.50
2019-03-22T21:17:38.671Z,54.83
2019-03-22T21:20:11.692Z,60.47
2019-03-22T21:22:43.337Z,54.20
2019-03-22T21:25:15.042Z,53.73
2019-03-22T21:27:46.664Z,57.50
2019-03-22T21:30:18.814Z,58.90
2019-03-22T21:32:50.835Z,61.87
2019-03-22T21:35:23.233Z,59.20
2019-03-22T21:37:54.891Z,66.33
2019-03-22T21:40:26.476Z,75.77
2019-03-22T21:42:58.074Z,72.90
2019-03-22T21:45:29.657Z,77.70
2019-03-22T21:48:02.356Z,71.53
2019-03-22T21:50:33.952Z,86.97
2019-03-22T21:53:05.573Z,75.40
2019-03-22T21:55:37.354Z,76.73
2019-03-22T21:58:08.827Z,77.27
2019-03-22T22:00:40.424Z,76.23
2019-03-22T22:03:12.702Z,81.03
2019-03-22T22:05:48.019Z,88.07
2019-03-22T22:08:17.581Z,83.03
2019-03-22T22:10:58.997Z,87.70
2019-03-22T22:13:23.358Z,88.03
2019-03-22T22:15:55.277Z,85.63
2019-03-22T22:18:26.865Z,85.53
2019-03-22T22:20:58.472Z,85.63
2019-03-22T22:23:30.482Z,90.93
2019-03-22T22:26:02.155Z,94.17
2019-03-22T22:28:33.752Z,88.90
2019-03-22T22:31:05.363Z,94.83
2019-03-22T22:33:36.947Z,95.97
2019-03-22T22:36:08.544Z,98.63
2019-03-22T22:38:40.161Z,95.53
2019-03-22T22:41:11.645Z,102.80
2019-03-22T22:43:43.271Z,97.37
2019-03-22T22:46:15.269Z,98.43
2019-03-22T22:48:46.852Z,124.20
2019-03-22T22:51:18.451Z,101.70
2019-03-22T22:53:50.553Z,105.33
2019-03-22T22:56:22.215Z,96.00
2019-03-22T22:58:53.787Z,87.97
2019-03-22T23:01:25.457Z,109.73
2019-03-22T23:03:57.045Z,89.47
2019-03-22T23:06:28.649Z,87.90
2019-03-22T23:09:00.298Z,92.27
2019-03-22T23:11:32.627Z,89.50
2019-03-22T23:14:04.539Z,84.40
2019-03-22T23:16:36.375Z,88.23
2019-03-22T23:19:08.034Z,102.97
2019-03-22T23:21:39.624Z,94.90
2019-03-22T23:24:11.324Z,100.90
2019-03-22T23:26:43.044Z,107.30
2019-03-22T23:29:14.632Z,122.77
2019-03-22T23:31:49.177Z,122.53
2019-03-22T23:34:20.660Z,128.27
2019-03-22T23:36:52.307Z,124.07
2019-03-22T23:39:23.900Z,140.13
2019-03-22T23:41:55.588Z,129.03
2019-03-22T23:44:27.506Z,129.60
2019-03-22T23:46:59.425Z,152.13
2019-03-22T23:49:31.738Z,151.27
2019-03-22T23:52:03.329Z,149.13
2019-03-22T23:54:36.004Z,143.43
2019-03-22T23:57:07.584Z,144.13
2019-03-22T23:59:39.143Z,181.30
